TimeCST,TemperatureF,Dew PointF,Humidity,Sea Level PressureIn,VisibilityMPH,Wind Direction,Wind SpeedMPH,Gust SpeedMPH,PrecipitationIn,Events,Conditions,WindDirDegrees,DateUTC
12:53 AM,57.9,37.9,47,29.91,10.0,South,11.5,-,N/A,,Clear,180,2012-11-22 06:53:00
1:53 AM,57.9,39.0,49,29.88,10.0,South,12.7,-,N/A,,Partly Cloudy,180,2012-11-22 07:53:00
2:53 AM,57.0,39.9,53,29.86,10.0,South,11.5,-,N/A,,Partly Cloudy,180,2012-11-22 08:53:00
3:53 AM,59.0,41.0,51,29.83,10.0,South,13.8,-,N/A,,Clear,190,2012-11-22 09:53:00
4:53 AM,60.1,42.1,51,29.82,10.0,South,13.8,-,N/A,,Clear,190,2012-11-22 10:53:00
5:53 AM,59.0,43.0,55,29.81,10.0,South,13.8,23.0,N/A,,Clear,190,2012-11-22 11:53:00
6:53 AM,59.0,44.1,58,29.82,10.0,SSW,10.4,-,N/A,,Clear,200,2012-11-22 12:53:00
7:53 AM,61.0,45.0,56,29.81,10.0,SSW,12.7,-,N/A,,Clear,200,2012-11-22 13:53:00
8:53 AM,63.0,46.0,54,29.83,10.0,SSW,12.7,-,N/A,,Clear,200,2012-11-22 14:53:00
9:53 AM,64.9,46.9,52,29.84,10.0,SW,17.3,26.5,N/A,,Clear,220,2012-11-22 15:53:00
10:53 AM,66.9,46.9,49,29.84,10.0,SSW,21.9,28.8,N/A,,Clear,210,2012-11-22 16:53:00
11:53 AM,66.9,48.0,51,29.83,10.0,SW,19.6,28.8,N/A,,Partly Cloudy,230,2012-11-22 17:53:00
12:53 PM,68.0,48.9,50,29.82,10.0,SSW,16.1,23.0,N/A,,Partly Cloudy,210,2012-11-22 18:53:00
1:53 PM,68.0,48.9,50,29.83,10.0,SW,11.5,-,N/A,,Clear,220,2012-11-22 19:53:00
2:53 PM,72.0,51.1,48,29.84,10.0,WSW,11.5,-,N/A,,Clear,250,2012-11-22 20:53:00
3:13 PM,69.8,42.8,38,29.87,10.0,NW,19.6,29.9,N/A,,Partly Cloudy,310,2012-11-22 21:13:00
3:53 PM,66.0,37.9,36,29.91,9.0,NNW,23.0,29.9,N/A,,Clear,330,2012-11-22 21:53:00
4:53 PM,60.1,37.9,44,29.99,8.0,NNW,27.6,33.4,N/A,,Clear,340,2012-11-22 22:53:00
5:53 PM,55.9,37.9,51,30.06,10.0,NNW,18.4,32.2,N/A,,Clear,340,2012-11-22 23:53:00
6:53 PM,53.1,36.0,52,30.13,10.0,NNW,16.1,25.3,N/A,,Clear,340,2012-11-23 00:53:00
7:53 PM,50.0,35.1,57,30.17,10.0,North,11.5,-,N/A,,Clear,350,2012-11-23 01:53:00
8:53 PM,45.0,34.0,65,30.20,10.0,NNW,6.9,-,N/A,,Clear,330,2012-11-23 02:53:00
9:53 PM,37.9,30.9,76,30.23,10.0,Calm,Calm,-,N/A,,Clear,0,2012-11-23 03:53:00
10:53 PM,41.0,30.9,67,30.24,10.0,NNW,4.6,-,N/A,,Clear,330,2012-11-23 04:53:00
11:53 PM,42.1,33.1,70,30.25,10.0,WNW,11.5,-,N/A,,Clear,300,2012-11-23 05:53:00